Terminal Aerodrome Forecast
Issued by NWS

Home | Current Version | Previous Version | Text Only | Print | Product List | Glossary On
Versions: 1 2 3 4 5 6 7 8 9 10 11 12 13 14 15 16 17 18 19 20 21 22 23
000
FTUS43 KAPX 270721 AAA
TAFPLN
TAF AMD
KPLN 270721Z 2707/2806 00000KT P6SM FEW015 SCT025 BKN040
      WS020/23030KT
      TEMPO 2707/2711 BKN020 BKN040
     FM271100 00000KT P6SM OVC025
     FM271600 23008KT 4SM -RADZ BR OVC012
     FM271800 27011KT 4SM -RADZ BR OVC007
     FM272200 27009KT P6SM BKN040=

USA.gov is the U.S. government's official web portal to all federal, state and local government web resources and services.